Profile

Join date: Jul 5, 2022

About


Cheap car rentals at Chotín Airstrip



Best car hire Chotín Airstrip:


Cheap Car Rental, Price Match Guarantee - Rentalcars.com You'll be offered cheap prices to save big dollars with internationally renowned rental companies like Alamo Rent A Car, Enterprise, Sixt, Budget, Hertz, Avis, and Thrifty. 2. Big savings for smart customers Prepay for your car rental and get exclusive. Chongqing car rental reviews and directory Avis No score is available Best rated Cleanliness - Comfort - Pick-up/Drop-off - Value for money - 8 locations in Chongqing Show locations View deals Hertz No score is available Cleanliness - Comfort - Pick-up/Drop-off - Value for money - 3 locations in Chongqing Show locations View deals Ehi


Locations in Chotín



Airport Delay information for Chotín Airstrip Airport (AG6839) located in Chotín, Nitra, Slovakia. View U.S. delays by destination, general departure and arrival delays, and airport closures. Friday 8 April 2022 UTC: Local: Friday 8 April 2022 UTC: Local: We use cookies. Flight Departure information for Chotín Airstrip Airport (AG6839) located in Chotín, Nitra, Slovakia. Includes airline, flight number, origin airport, destination airport,. Flight Arrival information for Chotín Airstrip Airport (AG6839) located in Chotín, Nitra, Slovakia. Includes airline, flight number, origin airport, destination airport, flight delays, flight status, and flight tracking. Tuesday 10 May 2022. Local: UTC: Menu. SEARCH. Airlines; image/svg+xml Airmen; Airports.


Where can I rent a car at Chotín Airstrip?



Chotín Airstrip is a small airport in Chotín, Slovakia. Chotín Airstrip Nové Zámky (10 mi) Zemné Airstrip (13 mi) Šurany (18 mi) Kamenný Most (21 mi) Gyõrszentiván-Bõny Airport (22 mi) Bony (22 mi) Kecskéd Airport (22 mi) Győr-Pér International Airport (22 mi) Chotín Airstrip: Chotín, SLOVAKIA: Airport Info. Suggest Updated Information for this Airport: Location: Latitude / Longitude: 47°48'51"N / 18°11'39"E :. LHPR 101715Z AUTO 30004KT CAVOK 09/06 Q1025: LHPA 39.6nm SW: LHPA 101715Z 34002KT 9999 OVC040 08/06 Q1025 NOSIG RMK BLU: TAF: LHPR Flight Arrival information for Chotín Airstrip Airport (AG6839) located in Chotín, Nitra, Slovakia. Includes airline, flight number, origin airport, destination airport, flight delays, flight status,. Rent a Car; Book a Cruise; Buy Rail Passes; Book a Room. Bed & Breakfast; Hotel; Home Rentals; Things To Do. Airshows & Fly-ins; Local Tours.

Павел Пиллигрини

More actions